Terminal Aerodrome Forecast
Issued by NWS

Home | Current Version | Previous Version | Text Only | Print | Product List | Glossary On
Versions: 1 2 3 4 5 6 7 8 9 10 11 12 13 14 15 16 17 18 19 20 21
000
FTUS45 KABQ 242200 AAA
TAFSAF
TAF AMD
KSAF 242229Z 2422/2518 25013G19KT P6SM SKC
      TEMPO 2422/2501 24020G30KT
     FM250500 02006KT P6SM FEW250
     FM251700 23010KT P6SM BKN250=

USA.gov is the U.S. government's official web portal to all federal, state and local government web resources and services.